sensor_id;sensor_type;location;lat;lon;timestamp;pressure;altitude;pressure_sealevel;temperature;humidity
54407;BME280;40313;50.308;30.374;2022-07-22T00:00:36;99290.13;;;16.35;100.00
54407;BME280;40313;50.308;30.374;2022-07-22T00:03:03;99296.59;;;16.31;100.00
54407;BME280;40313;50.308;30.374;2022-07-22T00:05:30;99291.03;;;16.24;100.00
54407;BME280;40313;50.308;30.374;2022-07-22T00:07:57;99296.69;;;16.20;100.00
54407;BME280;40313;50.308;30.374;2022-07-22T00:10:25;99303.91;;;16.18;100.00
54407;BME280;40313;50.308;30.374;2022-07-22T00:12:52;99306.06;;;16.13;100.00
54407;BME280;40313;50.308;30.374;2022-07-22T00:15:18;99308.97;;;16.10;100.00
54407;BME280;40313;50.308;30.374;2022-07-22T00:17:45;99305.88;;;16.04;100.00
54407;BME280;40313;50.308;30.374;2022-07-22T00:20:12;99304.47;;;16.00;100.00
54407;BME280;40313;50.308;30.374;2022-07-22T00:22:39;99304.72;;;15.97;100.00
54407;BME280;40313;50.308;30.374;2022-07-22T00:25:06;99309.56;;;15.92;100.00
54407;BME280;40313;50.308;30.374;2022-07-22T00:27:34;99310.50;;;15.91;100.00
54407;BME280;40313;50.308;30.374;2022-07-22T00:30:01;99321.31;;;15.88;100.00
54407;BME280;40313;50.308;30.374;2022-07-22T00:32:28;99317.25;;;15.84;100.00
54407;BME280;40313;50.308;30.374;2022-07-22T00:34:55;99313.22;;;15.80;100.00
54407;BME280;40313;50.308;30.374;2022-07-22T00:37:21;99317.03;;;15.76;100.00
54407;BME280;40313;50.308;30.374;2022-07-22T00:39:48;99319.09;;;15.72;100.00
54407;BME280;40313;50.308;30.374;2022-07-22T00:42:15;99321.13;;;15.68;100.00
54407;BME280;40313;50.308;30.374;2022-07-22T00:44:43;99323.06;;;15.66;100.00
54407;BME280;40313;50.308;30.374;2022-07-22T00:47:11;99319.13;;;15.61;100.00
54407;BME280;40313;50.308;30.374;2022-07-22T00:49:37;99322.84;;;15.58;100.00
54407;BME280;40313;50.308;30.374;2022-07-22T00:52:05;99319.63;;;15.54;100.00
54407;BME280;40313;50.308;30.374;2022-07-22T00:54:32;99320.75;;;15.52;100.00
54407;BME280;40313;50.308;30.374;2022-07-22T00:56:59;99320.97;;;15.49;100.00
54407;BME280;40313;50.308;30.374;2022-07-22T00:59:26;99314.19;;;15.46;100.00
54407;BME280;40313;50.308;30.374;2022-07-22T01:01:54;99313.59;;;15.43;100.00
54407;BME280;40313;50.308;30.374;2022-07-22T01:04:20;99314.78;;;15.38;100.00
54407;BME280;40313;50.308;30.374;2022-07-22T01:06:47;99311.47;;;15.36;100.00
54407;BME280;40313;50.308;30.374;2022-07-22T01:09:14;99316.00;;;15.34;100.00
54407;BME280;40313;50.308;30.374;2022-07-22T01:11:41;99311.13;;;15.30;100.00
54407;BME280;40313;50.308;30.374;2022-07-22T01:14:08;99315.81;;;15.26;100.00
54407;BME280;40313;50.308;30.374;2022-07-22T01:16:35;99315.81;;;15.26;100.00
54407;BME280;40313;50.308;30.374;2022-07-22T01:19:04;99320.34;;;15.24;100.00
54407;BME280;40313;50.308;30.374;2022-07-22T01:21:32;99311.03;;;15.20;100.00
54407;BME280;40313;50.308;30.374;2022-07-22T01:23:59;99318.47;;;15.15;100.00
54407;BME280;40313;50.308;30.374;2022-07-22T01:26:26;99323.00;;;15.13;100.00
54407;BME280;40313;50.308;30.374;2022-07-22T01:28:52;99329.44;;;15.09;100.00
54407;BME280;40313;50.308;30.374;2022-07-22T01:31:19;99328.75;;;15.07;100.00
54407;BME280;40313;50.308;30.374;2022-07-22T01:33:46;99325.53;;;15.03;100.00
54407;BME280;40313;50.308;30.374;2022-07-22T01:36:12;99328.28;;;15.01;100.00
54407;BME280;40313;50.308;30.374;2022-07-22T01:38:41;99325.78;;;15.00;100.00
54407;BME280;40313;50.308;30.374;2022-07-22T01:41:07;99326.16;;;14.95;100.00
54407;BME280;40313;50.308;30.374;2022-07-22T01:43:34;99328.06;;;14.93;100.00
54407;BME280;40313;50.308;30.374;2022-07-22T01:46:01;99335.22;;;14.91;100.00
54407;BME280;40313;50.308;30.374;2022-07-22T01:48:28;99330.22;;;14.88;100.00
54407;BME280;40313;50.308;30.374;2022-07-22T01:50:55;99335.59;;;14.86;100.00
54407;BME280;40313;50.308;30.374;2022-07-22T01:53:22;99333.91;;;14.85;100.00
54407;BME280;40313;50.308;30.374;2022-07-22T01:55:50;99335.97;;;14.82;100.00
54407;BME280;40313;50.308;30.374;2022-07-22T01:58:17;99347.41;;;14.81;100.00
54407;BME280;40313;50.308;30.374;2022-07-22T02:00:44;99352.78;;;14.79;100.00
54407;BME280;40313;50.308;30.374;2022-07-22T02:03:11;99346.69;;;14.79;100.00
54407;BME280;40313;50.308;30.374;2022-07-22T02:05:38;99352.91;;;14.78;100.00
54407;BME280;40313;50.308;30.374;2022-07-22T02:08:07;99346.69;;;14.79;100.00
54407;BME280;40313;50.308;30.374;2022-07-22T02:10:35;99351.25;;;14.77;100.00
54407;BME280;40313;50.308;30.374;2022-07-22T02:13:03;99354.56;;;14.79;100.00
54407;BME280;40313;50.308;30.374;2022-07-22T02:15:30;99352.19;;;14.76;100.00
54407;BME280;40313;50.308;30.374;2022-07-22T02:17:57;99340.84;;;14.75;100.00
54407;BME280;40313;50.308;30.374;2022-07-22T02:20:23;99346.34;;;14.72;100.00
54407;BME280;40313;50.308;30.374;2022-07-22T02:22:50;99345.50;;;14.72;100.00
54407;BME280;40313;50.308;30.374;2022-07-22T02:25:17;99346.47;;;14.71;100.00
54407;BME280;40313;50.308;30.374;2022-07-22T02:27:44;99354.34;;;14.71;100.00
54407;BME280;40313;50.308;30.374;2022-07-22T02:30:12;99357.94;;;14.69;100.00
54407;BME280;40313;50.308;30.374;2022-07-22T02:32:39;99365.09;;;14.67;100.00
54407;BME280;40313;50.308;30.374;2022-07-22T02:35:06;99365.19;;;14.66;100.00
54407;BME280;40313;50.308;30.374;2022-07-22T02:37:33;99361.88;;;14.64;100.00
54407;BME280;40313;50.308;30.374;2022-07-22T02:40:02;99361.22;;;14.60;100.00
54407;BME280;40313;50.308;30.374;2022-07-22T02:42:29;99364.81;;;14.59;100.00
54407;BME280;40313;50.308;30.374;2022-07-22T02:44:55;99359.69;;;14.58;100.00
54407;BME280;40313;50.308;30.374;2022-07-22T02:47:23;99371.97;;;14.57;100.00
54407;BME280;40313;50.308;30.374;2022-07-22T02:49:50;99371.13;;;14.57;100.00
54407;BME280;40313;50.308;30.374;2022-07-22T02:52:17;99368.63;;;14.55;100.00
54407;BME280;40313;50.308;30.374;2022-07-22T02:54:44;99376.50;;;14.55;100.00
54407;BME280;40313;50.308;30.374;2022-07-22T02:57:10;99373.88;;;14.55;100.00
54407;BME280;40313;50.308;30.374;2022-07-22T02:59:37;99376.50;;;14.55;100.00
54407;BME280;40313;50.308;30.374;2022-07-22T03:02:04;99382.47;;;14.57;100.00
54407;BME280;40313;50.308;30.374;2022-07-22T03:04:32;99382.22;;;14.60;100.00
54407;BME280;40313;50.308;30.374;2022-07-22T03:07:00;99383.69;;;14.64;100.00
54407;BME280;40313;50.308;30.374;2022-07-22T03:09:26;99383.22;;;14.71;100.00
54407;BME280;40313;50.308;30.374;2022-07-22T03:11:53;99384.56;;;14.88;100.00
54407;BME280;40313;50.308;30.374;2022-07-22T03:14:20;99381.78;;;15.00;100.00
54407;BME280;40313;50.308;30.374;2022-07-22T03:16:47;99386.78;;;15.15;100.00
54407;BME280;40313;50.308;30.374;2022-07-22T03:19:14;99385.66;;;15.29;100.00
54407;BME280;40313;50.308;30.374;2022-07-22T03:21:42;99384.56;;;15.43;100.00
54407;BME280;40313;50.308;30.374;2022-07-22T03:24:08;99389.09;;;15.52;100.00
54407;BME280;40313;50.308;30.374;2022-07-22T03:26:35;99378.41;;;15.65;100.00
54407;BME280;40313;50.308;30.374;2022-07-22T03:29:02;99375.72;;;15.76;100.00
54407;BME280;40313;50.308;30.374;2022-07-22T03:31:28;99376.66;;;15.86;100.00
54407;BME280;40313;50.308;30.374;2022-07-22T03:33:55;99378.66;;;15.94;100.00
54407;BME280;40313;50.308;30.374;2022-07-22T03:36:22;99389.66;;;15.99;100.00
54407;BME280;40313;50.308;30.374;2022-07-22T03:38:50;99380.97;;;16.09;100.00
54407;BME280;40313;50.308;30.374;2022-07-22T03:41:16;99384.88;;;16.14;100.00
54407;BME280;40313;50.308;30.374;2022-07-22T03:43:43;99384.94;;;16.24;100.00
54407;BME280;40313;50.308;30.374;2022-07-22T03:46:10;99386.28;;;16.39;100.00
54407;BME280;40313;50.308;30.374;2022-07-22T03:48:36;99379.28;;;16.50;100.00
54407;BME280;40313;50.308;30.374;2022-07-22T03:51:03;99371.56;;;16.58;100.00
54407;BME280;40313;50.308;30.374;2022-07-22T03:53:30;99373.53;;;16.66;100.00
54407;BME280;40313;50.308;30.374;2022-07-22T03:55:59;99375.50;;;16.73;100.00
54407;BME280;40313;50.308;30.374;2022-07-22T03:58:26;99370.38;;;16.72;100.00
54407;BME280;40313;50.308;30.374;2022-07-22T04:00:53;99376.19;;;16.75;100.00
54407;BME280;40313;50.308;30.374;2022-07-22T04:03:20;99375.25;;;16.76;100.00
54407;BME280;40313;50.308;30.374;2022-07-22T04:05:46;99389.38;;;16.75;100.00
54407;BME280;40313;50.308;30.374;2022-07-22T04:08:13;99393.41;;;16.80;100.00
54407;BME280;40313;50.308;30.374;2022-07-22T04:10:40;99389.41;;;16.85;100.00
54407;BME280;40313;50.308;30.374;2022-07-22T04:13:08;99394.50;;;16.98;100.00
54407;BME280;40313;50.308;30.374;2022-07-22T04:15:34;99386.66;;;17.18;100.00
54407;BME280;40313;50.308;30.374;2022-07-22T04:18:01;99386.38;;;17.40;100.00
54407;BME280;40313;50.308;30.374;2022-07-22T04:20:28;99394.31;;;17.60;100.00
54407;BME280;40313;50.308;30.374;2022-07-22T04:22:55;99390.16;;;17.77;100.00
54407;BME280;40313;50.308;30.374;2022-07-22T04:25:21;99388.34;;;17.77;100.00
54407;BME280;40313;50.308;30.374;2022-07-22T04:27:48;99397.03;;;17.99;100.00
54407;BME280;40313;50.308;30.374;2022-07-22T04:30:17;99385.00;;;18.34;100.00
54407;BME280;40313;50.308;30.374;2022-07-22T04:32:44;99384.84;;;18.45;100.00
54407;BME280;40313;50.308;30.374;2022-07-22T04:35:11;99377.31;;;18.51;100.00
54407;BME280;40313;50.308;30.374;2022-07-22T04:37:37;99381.59;;;18.52;100.00
54407;BME280;40313;50.308;30.374;2022-07-22T04:40:05;99381.47;;;18.53;100.00
54407;BME280;40313;50.308;30.374;2022-07-22T04:42:32;99371.44;;;18.57;100.00
54407;BME280;40313;50.308;30.374;2022-07-22T04:44:59;99369.47;;;18.59;100.00
54407;BME280;40313;50.308;30.374;2022-07-22T04:47:27;99374.41;;;18.44;100.00
54407;BME280;40313;50.308;30.374;2022-07-22T04:49:53;99383.44;;;18.41;100.00
54407;BME280;40313;50.308;30.374;2022-07-22T04:52:20;99383.28;;;18.90;100.00
54407;BME280;40313;50.308;30.374;2022-07-22T04:54:47;99386.28;;;18.68;100.00
54407;BME280;40313;50.308;30.374;2022-07-22T04:57:14;99383.38;;;18.71;100.00
54407;BME280;40313;50.308;30.374;2022-07-22T04:59:41;99380.03;;;18.69;100.00
54407;BME280;40313;50.308;30.374;2022-07-22T05:02:07;99379.09;;;18.60;100.00
54407;BME280;40313;50.308;30.374;2022-07-22T05:04:36;99384.47;;;18.68;100.00
54407;BME280;40313;50.308;30.374;2022-07-22T05:07:02;99377.41;;;19.88;100.00
54407;BME280;40313;50.308;30.374;2022-07-22T05:09:29;99375.41;;;21.54;100.00
54407;BME280;40313;50.308;30.374;2022-07-22T05:11:56;99361.50;;;24.30;100.00
54407;BME280;40313;50.308;30.374;2022-07-22T05:14:22;99351.47;;;27.60;100.00
54407;BME280;40313;50.308;30.374;2022-07-22T05:16:49;99350.28;;;26.59;100.00
54407;BME280;40313;50.308;30.374;2022-07-22T05:19:16;99345.59;;;25.55;100.00
54407;BME280;40313;50.308;30.374;2022-07-22T05:21:44;99350.56;;;25.21;100.00
54407;BME280;40313;50.308;30.374;2022-07-22T05:24:11;99355.00;;;26.22;100.00
54407;BME280;40313;50.308;30.374;2022-07-22T05:26:37;99349.69;;;27.05;100.00
54407;BME280;40313;50.308;30.374;2022-07-22T05:29:04;99351.41;;;26.71;100.00
54407;BME280;40313;50.308;30.374;2022-07-22T05:31:31;99358.06;;;25.11;100.00
54407;BME280;40313;50.308;30.374;2022-07-22T05:33:57;99362.38;;;24.07;100.00
54407;BME280;40313;50.308;30.374;2022-07-22T05:36:24;99367.72;;;23.61;100.00
54407;BME280;40313;50.308;30.374;2022-07-22T05:38:52;99368.16;;;23.18;100.00
54407;BME280;40313;50.308;30.374;2022-07-22T05:41:19;99367.91;;;22.97;100.00
54407;BME280;40313;50.308;30.374;2022-07-22T05:43:46;99366.75;;;22.51;100.00
54407;BME280;40313;50.308;30.374;2022-07-22T05:46:12;99371.28;;;22.18;100.00
54407;BME280;40313;50.308;30.374;2022-07-22T05:48:39;99378.38;;;22.42;100.00
54407;BME280;40313;50.308;30.374;2022-07-22T05:51:10;99376.44;;;22.19;100.00
54407;BME280;40313;50.308;30.374;2022-07-22T05:53:37;99379.09;;;22.03;100.00
54407;BME280;40313;50.308;30.374;2022-07-22T05:56:07;99377.28;;;21.95;100.00
54407;BME280;40313;50.308;30.374;2022-07-22T05:58:33;99377.94;;;21.72;100.00
54407;BME280;40313;50.308;30.374;2022-07-22T06:01:00;99369.66;;;22.73;100.00
54407;BME280;40313;50.308;30.374;2022-07-22T06:03:27;99356.66;;;26.93;100.00
54407;BME280;40313;50.308;30.374;2022-07-22T06:05:53;99350.97;;;28.77;100.00
54407;BME280;40313;50.308;30.374;2022-07-22T06:08:20;99354.38;;;30.00;96.01
54407;BME280;40313;50.308;30.374;2022-07-22T06:10:47;99356.75;;;32.28;77.76
54407;BME280;40313;50.308;30.374;2022-07-22T06:13:15;99355.13;;;33.49;67.36
54407;BME280;40313;50.308;30.374;2022-07-22T06:15:42;99355.56;;;34.08;63.71
54407;BME280;40313;50.308;30.374;2022-07-22T06:18:08;99347.50;;;35.24;59.77
54407;BME280;40313;50.308;30.374;2022-07-22T06:20:35;99355.75;;;36.42;53.38
54407;BME280;40313;50.308;30.374;2022-07-22T06:23:02;99348.75;;;37.46;50.32
54407;BME280;40313;50.308;30.374;2022-07-22T06:25:29;99349.22;;;35.30;52.76
54407;BME280;40313;50.308;30.374;2022-07-22T06:27:55;99355.69;;;36.80;50.34
54407;BME280;40313;50.308;30.374;2022-07-22T06:30:23;99356.47;;;35.52;51.70
54407;BME280;40313;50.308;30.374;2022-07-22T06:32:51;99351.19;;;36.53;48.84
54407;BME280;40313;50.308;30.374;2022-07-22T06:35:18;99356.16;;;36.72;47.28
54407;BME280;40313;50.308;30.374;2022-07-22T06:37:44;99356.25;;;36.92;45.49
54407;BME280;40313;50.308;30.374;2022-07-22T06:40:11;99359.63;;;37.66;44.62
54407;BME280;40313;50.308;30.374;2022-07-22T06:42:38;99356.06;;;38.07;44.12
54407;BME280;40313;50.308;30.374;2022-07-22T06:45:05;99348.84;;;38.58;43.31
54407;BME280;40313;50.308;30.374;2022-07-22T06:47:33;99358.25;;;37.43;43.39
54407;BME280;40313;50.308;30.374;2022-07-22T06:50:00;99349.81;;;37.55;43.33
54407;BME280;40313;50.308;30.374;2022-07-22T06:52:26;99348.19;;;37.49;42.28
54407;BME280;40313;50.308;30.374;2022-07-22T06:54:53;99344.94;;;37.93;41.89
54407;BME280;40313;50.308;30.374;2022-07-22T06:57:19;99358.97;;;36.92;42.41
54407;BME280;40313;50.308;30.374;2022-07-22T06:59:46;99356.91;;;34.89;45.16
54407;BME280;40313;50.308;30.374;2022-07-22T07:02:12;99361.94;;;35.57;44.73
54407;BME280;40313;50.308;30.374;2022-07-22T07:04:40;99362.22;;;34.79;46.51
54407;BME280;40313;50.308;30.374;2022-07-22T07:07:07;99368.09;;;31.70;51.64
54407;BME280;40313;50.308;30.374;2022-07-22T07:09:34;99368.84;;;29.99;56.13
54407;BME280;40313;50.308;30.374;2022-07-22T07:12:01;99368.78;;;29.10;62.88
54407;BME280;40313;50.308;30.374;2022-07-22T07:14:27;99370.22;;;28.54;67.31
54407;BME280;40313;50.308;30.374;2022-07-22T07:16:54;99378.88;;;27.62;70.36
54407;BME280;40313;50.308;30.374;2022-07-22T07:19:21;99372.69;;;26.51;74.19
54407;BME280;40313;50.308;30.374;2022-07-22T07:21:49;99373.16;;;25.55;82.61
54407;BME280;40313;50.308;30.374;2022-07-22T07:24:16;99373.38;;;24.87;90.09
54407;BME280;40313;50.308;30.374;2022-07-22T07:26:42;99372.25;;;24.37;94.30
54407;BME280;40313;50.308;30.374;2022-07-22T07:29:09;99381.75;;;24.01;96.21
54407;BME280;40313;50.308;30.374;2022-07-22T07:31:36;99384.59;;;23.76;100.00
54407;BME280;40313;50.308;30.374;2022-07-22T07:34:02;99381.03;;;23.61;100.00
54407;BME280;40313;50.308;30.374;2022-07-22T07:36:29;99381.31;;;23.43;100.00
54407;BME280;40313;50.308;30.374;2022-07-22T07:38:57;99384.03;;;23.35;100.00
54407;BME280;40313;50.308;30.374;2022-07-22T07:41:24;99374.41;;;23.34;100.00
54407;BME280;40313;50.308;30.374;2022-07-22T07:43:50;99376.00;;;23.43;100.00
54407;BME280;40313;50.308;30.374;2022-07-22T07:46:17;99376.34;;;23.63;100.00
54407;BME280;40313;50.308;30.374;2022-07-22T07:48:44;99383.47;;;23.71;100.00
54407;BME280;40313;50.308;30.374;2022-07-22T07:51:12;99372.91;;;23.77;100.00
54407;BME280;40313;50.308;30.374;2022-07-22T07:53:39;99382.53;;;23.87;100.00
54407;BME280;40313;50.308;30.374;2022-07-22T07:56:07;99385.03;;;23.88;100.00
54407;BME280;40313;50.308;30.374;2022-07-22T07:58:34;99382.03;;;23.83;97.48
54407;BME280;40313;50.308;30.374;2022-07-22T08:01:00;99383.75;;;23.76;99.43
54407;BME280;40313;50.308;30.374;2022-07-22T08:03:27;99384.47;;;23.70;98.09
54407;BME280;40313;50.308;30.374;2022-07-22T08:05:54;99394.28;;;23.69;96.63
54407;BME280;40313;50.308;30.374;2022-07-22T08:08:21;99390.25;;;23.73;96.89
54407;BME280;40313;50.308;30.374;2022-07-22T08:10:47;99382.94;;;23.75;96.36
54407;BME280;40313;50.308;30.374;2022-07-22T08:13:16;99384.75;;;23.75;96.10
54407;BME280;40313;50.308;30.374;2022-07-22T08:15:42;99391.78;;;23.68;97.43
54407;BME280;40313;50.308;30.374;2022-07-22T08:18:09;99408.00;;;23.89;96.84
54407;BME280;40313;50.308;30.374;2022-07-22T08:20:36;99404.25;;;23.98;96.56
54407;BME280;40313;50.308;30.374;2022-07-22T08:23:03;99399.09;;;23.97;92.67
54407;BME280;40313;50.308;30.374;2022-07-22T08:25:29;99395.00;;;23.86;91.68
54407;BME280;40313;50.308;30.374;2022-07-22T08:27:57;99403.69;;;23.88;92.00
54407;BME280;40313;50.308;30.374;2022-07-22T08:30:26;99404.25;;;23.98;93.70
54407;BME280;40313;50.308;30.374;2022-07-22T08:32:54;99405.72;;;24.01;92.31
54407;BME280;40313;50.308;30.374;2022-07-22T08:35:21;99391.16;;;23.89;94.07
54407;BME280;40313;50.308;30.374;2022-07-22T08:37:47;99399.56;;;24.01;97.38
54407;BME280;40313;50.308;30.374;2022-07-22T08:40:16;99382.50;;;24.10;98.44
54407;BME280;40313;50.308;30.374;2022-07-22T08:42:44;99394.97;;;24.32;98.23
54407;BME280;40313;50.308;30.374;2022-07-22T08:45:11;99401.03;;;24.41;97.26
54407;BME280;40313;50.308;30.374;2022-07-22T08:47:40;99395.84;;;24.25;95.79
54407;BME280;40313;50.308;30.374;2022-07-22T08:50:10;99392.53;;;24.08;94.51
54407;BME280;40313;50.308;30.374;2022-07-22T08:52:37;99394.47;;;24.14;95.65
54407;BME280;40313;50.308;30.374;2022-07-22T08:55:05;99394.84;;;24.26;96.84
54407;BME280;40313;50.308;30.374;2022-07-22T08:57:32;99396.88;;;24.39;95.58
54407;BME280;40313;50.308;30.374;2022-07-22T09:00:00;99408.66;;;24.44;93.09
54407;BME280;40313;50.308;30.374;2022-07-22T09:02:27;99405.88;;;24.38;91.16
54407;BME280;40313;50.308;30.374;2022-07-22T09:05:05;99402.28;;;24.30;90.17
54407;BME280;40313;50.308;30.374;2022-07-22T09:07:33;99398.91;;;24.37;90.97
54407;BME280;40313;50.308;30.374;2022-07-22T09:10:03;99392.22;;;24.41;87.38
54407;BME280;40313;50.308;30.374;2022-07-22T09:12:30;99397.56;;;24.41;87.89
54407;BME280;40313;50.308;30.374;2022-07-22T09:14:59;99397.72;;;24.54;89.32
54407;BME280;40313;50.308;30.374;2022-07-22T09:17:27;99391.41;;;24.55;82.16
54407;BME280;40313;50.308;30.374;2022-07-22T09:19:55;99401.47;;;24.45;81.07
54407;BME280;40313;50.308;30.374;2022-07-22T09:22:35;99408.28;;;24.32;80.69
54407;BME280;40313;50.308;30.374;2022-07-22T09:25:23;99412.63;;;24.33;83.10
54407;BME280;40313;50.308;30.374;2022-07-22T09:27:52;99412.50;;;24.42;82.47
54407;BME280;40313;50.308;30.374;2022-07-22T09:30:21;99414.53;;;24.40;81.09
54407;BME280;40313;50.308;30.374;2022-07-22T09:32:49;99412.44;;;24.50;82.23
54407;BME280;40313;50.308;30.374;2022-07-22T09:35:16;99409.03;;;24.56;79.33
54407;BME280;40313;50.308;30.374;2022-07-22T09:37:52;99407.31;;;24.63;80.91
54407;BME280;40313;50.308;30.374;2022-07-22T09:40:19;99423.72;;;24.52;79.49
54407;BME280;40313;50.308;30.374;2022-07-22T09:42:49;99421.38;;;24.57;78.71
54407;BME280;40313;50.308;30.374;2022-07-22T09:45:17;99419.63;;;24.49;78.73
54407;BME280;40313;50.308;30.374;2022-07-22T09:47:44;99420.72;;;24.55;78.66
54407;BME280;40313;50.308;30.374;2022-07-22T09:50:15;99425.69;;;24.58;79.53
54407;BME280;40313;50.308;30.374;2022-07-22T09:52:42;99422.13;;;24.66;78.89
54407;BME280;40313;50.308;30.374;2022-07-22T09:55:13;99418.91;;;24.71;77.49
54407;BME280;40313;50.308;30.374;2022-07-22T09:57:42;99416.91;;;24.73;74.97
54407;BME280;40313;50.308;30.374;2022-07-22T10:00:09;99426.69;;;24.57;73.54
54407;BME280;40313;50.308;30.374;2022-07-22T10:02:40;99408.47;;;24.46;73.79
54407;BME280;40313;50.308;30.374;2022-07-22T10:05:09;99412.34;;;24.43;72.12
54407;BME280;40313;50.308;30.374;2022-07-22T10:07:38;99410.41;;;24.52;75.52
54407;BME280;40313;50.308;30.374;2022-07-22T10:10:06;99412.19;;;24.75;77.17
54407;BME280;40313;50.308;30.374;2022-07-22T10:12:36;99419.91;;;24.84;75.32
54407;BME280;40313;50.308;30.374;2022-07-22T10:15:04;99427.09;;;24.84;72.80
54407;BME280;40313;50.308;30.374;2022-07-22T10:17:33;99417.44;;;24.83;69.85
54407;BME280;40313;50.308;30.374;2022-07-22T10:20:02;99422.53;;;24.78;71.13
54407;BME280;40313;50.308;30.374;2022-07-22T10:22:48;99427.09;;;24.84;70.67
54407;BME280;40313;50.308;30.374;2022-07-22T10:25:17;99419.28;;;24.82;72.33
54407;BME280;40313;50.308;30.374;2022-07-22T10:27:47;99418.75;;;24.72;70.67
54407;BME280;40313;50.308;30.374;2022-07-22T10:30:17;99415.31;;;24.63;70.38
54407;BME280;40313;50.308;30.374;2022-07-22T10:32:44;99416.03;;;24.57;70.91
54407;BME280;40313;50.308;30.374;2022-07-22T10:35:22;99416.34;;;24.62;71.01
54407;BME280;40313;50.308;30.374;2022-07-22T10:37:51;99426.91;;;24.71;69.12
54407;BME280;40313;50.308;30.374;2022-07-22T10:40:20;99415.03;;;24.73;66.89
54407;BME280;40313;50.308;30.374;2022-07-22T10:43:09;99421.22;;;24.74;70.24
54407;BME280;40313;50.308;30.374;2022-07-22T10:45:39;99419.00;;;24.77;68.33
54407;BME280;40313;50.308;30.374;2022-07-22T10:48:07;99418.56;;;24.74;68.58
54407;BME280;40313;50.308;30.374;2022-07-22T10:50:47;99420.94;;;24.69;69.66
54407;BME280;40313;50.308;30.374;2022-07-22T10:53:17;99428.94;;;24.69;69.33
54407;BME280;40313;50.308;30.374;2022-07-22T10:56:05;99419.56;;;24.73;71.88
54407;BME280;40313;50.308;30.374;2022-07-22T10:58:55;99438.53;;;24.78;69.73
54407;BME280;40313;50.308;30.374;2022-07-22T11:01:25;99439.72;;;24.75;70.26
54407;BME280;40313;50.308;30.374;2022-07-22T11:03:52;99431.63;;;24.69;69.38
54407;BME280;40313;50.308;30.374;2022-07-22T11:06:27;99432.63;;;24.67;68.80
54407;BME280;40313;50.308;30.374;2022-07-22T11:08:56;99437.25;;;24.74;70.04
54407;BME280;40313;50.308;30.374;2022-07-22T11:11:41;99432.53;;;24.76;70.99
54407;BME280;40313;50.308;30.374;2022-07-22T11:14:28;99437.69;;;24.77;69.29
54407;BME280;40313;50.308;30.374;2022-07-22T11:16:57;99432.88;;;24.88;68.99
54407;BME280;40313;50.308;30.374;2022-07-22T11:19:26;99432.63;;;24.82;67.18
54407;BME280;40313;50.308;30.374;2022-07-22T11:21:54;99428.78;;;24.85;68.39
54407;BME280;40313;50.308;30.374;2022-07-22T11:24:22;99428.84;;;24.92;69.25
54407;BME280;40313;50.308;30.374;2022-07-22T11:26:51;99428.13;;;24.98;69.16
54407;BME280;40313;50.308;30.374;2022-07-22T11:29:30;99437.84;;;25.06;70.41
54407;BME280;40313;50.308;30.374;2022-07-22T11:31:59;99431.97;;;25.10;67.74
54407;BME280;40313;50.308;30.374;2022-07-22T11:34:27;99437.75;;;25.14;67.42
54407;BME280;40313;50.308;30.374;2022-07-22T11:36:55;99433.41;;;25.28;69.02
54407;BME280;40313;50.308;30.374;2022-07-22T11:39:24;99440.50;;;25.35;66.79
54407;BME280;40313;50.308;30.374;2022-07-22T11:41:52;99433.16;;;25.23;64.21
54407;BME280;40313;50.308;30.374;2022-07-22T11:44:21;99435.91;;;25.14;64.45
54407;BME280;40313;50.308;30.374;2022-07-22T11:46:51;99431.03;;;25.18;66.27
54407;BME280;40313;50.308;30.374;2022-07-22T11:49:19;99432.13;;;25.24;66.71
54407;BME280;40313;50.308;30.374;2022-07-22T11:51:46;99428.00;;;25.21;65.58
54407;BME280;40313;50.308;30.374;2022-07-22T11:54:14;99435.34;;;25.19;64.91
54407;BME280;40313;50.308;30.374;2022-07-22T11:56:40;99420.38;;;25.18;64.64
54407;BME280;40313;50.308;30.374;2022-07-22T11:59:12;99429.66;;;25.22;62.57
54407;BME280;40313;50.308;30.374;2022-07-22T12:01:39;99430.91;;;25.26;61.99
54407;BME280;40313;50.308;30.374;2022-07-22T12:04:09;99427.72;;;25.31;61.34
54407;BME280;40313;50.308;30.374;2022-07-22T12:06:38;99422.84;;;25.34;62.78
54407;BME280;40313;50.308;30.374;2022-07-22T12:09:07;99427.78;;;25.38;63.42
54407;BME280;40313;50.308;30.374;2022-07-22T12:11:35;99420.44;;;25.40;64.17
54407;BME280;40313;50.308;30.374;2022-07-22T12:14:07;99418.38;;;25.42;62.90
54407;BME280;40313;50.308;30.374;2022-07-22T12:16:34;99417.66;;;25.48;64.62
54407;BME280;40313;50.308;30.374;2022-07-22T12:19:03;99421.38;;;25.53;66.18
54407;BME280;40313;50.308;30.374;2022-07-22T12:21:34;99422.22;;;25.54;65.52
54407;BME280;40313;50.308;30.374;2022-07-22T12:24:03;99422.66;;;25.58;67.29
54407;BME280;40313;50.308;30.374;2022-07-22T12:26:37;99415.13;;;25.61;64.93
54407;BME280;40313;50.308;30.374;2022-07-22T12:29:19;99417.78;;;25.61;65.73
54407;BME280;40313;50.308;30.374;2022-07-22T12:31:48;99413.91;;;25.64;65.73
54407;BME280;40313;50.308;30.374;2022-07-22T12:34:15;99413.44;;;25.60;64.33
54407;BME280;40313;50.308;30.374;2022-07-22T12:36:46;99411.56;;;25.54;60.08
54407;BME280;40313;50.308;30.374;2022-07-22T12:39:15;99417.72;;;25.55;60.38
54407;BME280;40313;50.308;30.374;2022-07-22T12:41:46;99410.69;;;25.53;60.96
54407;BME280;40313;50.308;30.374;2022-07-22T12:44:18;99416.13;;;25.60;61.55
54407;BME280;40313;50.308;30.374;2022-07-22T12:46:46;99414.53;;;25.66;63.50
54407;BME280;40313;50.308;30.374;2022-07-22T12:49:15;99408.56;;;25.64;62.67